Time;durP1;ratioP1;P1;durP2;ratioP2;P2;SDS_P1;SDS_P2;PMS_P1;PMS_P2;Temp;Humidity;BMP_temperature;BMP_pressure;BME280_temperature;BME280_humidity;BME280_pressure;Samples;Min_cycle;Max_cycle;Signal;HPM_P1;HPM_P2
2023/03/08 00:01:00;;;;;;;7.20;3.87;;;4.70;72.40;;;;;;5093090;28;20471;-62
2023/03/08 00:03:26;;;;;;;8.07;4.57;;;4.70;72.40;;;;;;5094533;28;20076;-62
2023/03/08 00:05:52;;;;;;;7.67;4.20;;;4.70;72.40;;;;;;5091987;28;20051;-62
2023/03/08 00:08:18;;;;;;;8.23;4.97;;;4.70;72.40;;;;;;5115042;28;20024;-63
2023/03/08 00:10:44;;;;;;;8.20;4.70;;;4.60;72.40;;;;;;5107710;28;20028;-62
2023/03/08 00:13:10;;;;;;;9.20;5.60;;;4.60;72.40;;;;;;5110991;28;20028;-62
2023/03/08 00:15:37;;;;;;;11.43;6.57;;;4.60;72.40;;;;;;5102138;28;20020;-62
2023/03/08 00:18:06;;;;;;;10.00;6.50;;;4.60;72.50;;;;;;5097839;28;20361;-63
2023/03/08 00:20:32;;;;;;;10.63;5.40;;;4.60;72.50;;;;;;5092734;28;20081;-62
2023/03/08 00:22:58;;;;;;;9.00;5.67;;;4.60;72.50;;;;;;5092870;28;20024;-62
2023/03/08 00:25:24;;;;;;;12.80;6.97;;;4.60;72.50;;;;;;5092728;28;20028;-62
2023/03/08 00:27:50;;;;;;;11.27;6.27;;;4.60;72.60;;;;;;5112663;28;20120;-62
2023/03/08 00:30:16;;;;;;;11.97;6.73;;;4.60;72.60;;;;;;5113492;28;20146;-62
2023/03/08 00:32:42;;;;;;;11.47;7.03;;;4.60;72.60;;;;;;5112770;28;20409;-62
2023/03/08 00:35:08;;;;;;;12.00;7.33;;;4.60;72.60;;;;;;5095927;28;20028;-62
2023/03/08 00:37:37;;;;;;;11.90;7.20;;;4.60;72.60;;;;;;5108286;28;20046;-62
2023/03/08 00:40:04;;;;;;;12.73;7.20;;;4.60;72.60;;;;;;5112155;28;20429;-62
2023/03/08 00:42:32;;;;;;;12.43;8.17;;;4.60;72.60;;;;;;5087648;28;20475;-62
2023/03/08 00:44:58;;;;;;;13.03;8.70;;;4.50;72.60;;;;;;5097502;28;20020;-62
2023/03/08 00:47:24;;;;;;;11.60;7.97;;;4.50;72.70;;;;;;5102328;28;20032;-62
2023/03/08 00:49:49;;;;;;;12.60;8.90;;;4.50;72.70;;;;;;5101044;28;20115;-62
2023/03/08 00:52:15;;;;;;;13.43;7.97;;;4.50;72.80;;;;;;5091414;28;20061;-62
2023/03/08 00:54:43;;;;;;;11.87;7.70;;;4.50;72.80;;;;;;5101708;28;20020;-62
2023/03/08 00:57:08;;;;;;;11.77;7.97;;;4.50;72.80;;;;;;5097839;28;20486;-62
2023/03/08 00:59:34;;;;;;;11.90;7.77;;;4.50;72.80;;;;;;5106308;28;20039;-62
2023/03/08 01:02:00;;;;;;;11.87;8.13;;;4.50;72.80;;;;;;5087295;28;20035;-62
2023/03/08 01:04:26;;;;;;;12.80;8.47;;;4.50;72.80;;;;;;5106086;28;20457;-62
2023/03/08 01:06:52;;;;;;;11.73;7.63;;;4.50;72.80;;;;;;5097726;28;20508;-62
2023/03/08 01:09:17;;;;;;;13.33;8.57;;;4.50;72.80;;;;;;5110247;28;20032;-62
2023/03/08 01:11:44;;;;;;;12.57;8.20;;;4.50;73.50;;;;;;5091850;28;20104;-62
2023/03/08 01:14:12;;;;;;;13.33;7.77;;;4.50;72.90;;;;;;5101860;28;20031;-62
2023/03/08 01:16:37;;;;;;;14.20;9.00;;;4.50;72.90;;;;;;5093566;28;20341;-62
2023/03/08 01:19:04;;;;;;;15.97;8.80;;;4.50;72.90;;;;;;5107516;28;20031;-62
2023/03/08 01:21:31;;;;;;;15.07;9.90;;;4.50;72.90;;;;;;5093024;28;20036;-62
2023/03/08 01:23:57;;;;;;;14.17;9.30;;;4.50;72.90;;;;;;5096550;28;20047;-62
2023/03/08 01:26:25;;;;;;;14.40;9.43;;;4.50;72.90;;;;;;5089513;28;20453;-62
2023/03/08 01:28:55;;;;;;;14.35;9.30;;;4.50;72.90;;;;;;5104954;28;20055;-62
2023/03/08 01:31:23;;;;;;;13.97;9.17;;;4.50;73.00;;;;;;5080544;28;20039;-62
2023/03/08 01:33:51;;;;;;;12.43;8.07;;;4.50;73.00;;;;;;5101844;28;20103;-62
2023/03/08 01:36:19;;;;;;;18.07;8.70;;;4.50;73.00;;;;;;5103247;28;20062;-62
2023/03/08 01:38:46;;;;;;;15.63;9.40;;;4.50;73.00;;;;;;5115886;28;20038;-62
2023/03/08 01:41:18;;;;;;;13.80;9.70;;;4.40;73.00;;;;;;5103422;28;20101;-62
2023/03/08 01:43:45;;;;;;;15.00;8.83;;;4.40;73.00;;;;;;5093826;28;20078;-62
2023/03/08 01:46:18;;;;;;;16.40;9.43;;;4.40;73.00;;;;;;5085222;28;20032;-62
2023/03/08 01:48:55;;;;;;;13.10;8.63;;;4.40;73.00;;;;;;5102138;28;20032;-62
2023/03/08 01:51:52;;;;;;;13.03;8.57;;;4.40;73.00;;;;;;5116596;28;20023;-62
2023/03/08 01:54:28;;;;;;;13.30;8.17;;;4.40;73.00;;;;;;5105949;28;20115;-62
2023/03/08 01:57:26;;;;;;;13.20;8.50;;;4.40;73.00;;;;;;5095700;28;20032;-62
2023/03/08 01:59:56;;;;;;;13.27;8.23;;;4.40;73.10;;;;;;5097632;28;20043;-63
2023/03/08 02:02:27;;;;;;;13.40;8.90;;;4.40;73.80;;;;;;5117368;28;20448;-62
2023/03/08 02:04:52;;;;;;;16.03;9.90;;;4.40;73.10;;;;;;5098512;28;20066;-63
2023/03/08 02:07:18;;;;;;;13.47;8.90;;;4.40;73.10;;;;;;5095990;28;20020;-62
2023/03/08 02:09:45;;;;;;;15.80;9.20;;;4.40;73.10;;;;;;5103876;28;20047;-62
2023/03/08 02:12:12;;;;;;;15.30;9.27;;;4.40;73.10;;;;;;5103624;28;20032;-62
2023/03/08 02:14:41;;;;;;;13.57;8.67;;;4.50;73.20;;;;;;5094044;28;20048;-62
2023/03/08 02:17:08;;;;;;;16.57;9.97;;;4.50;73.20;;;;;;5075329;28;20020;-62
2023/03/08 02:20:11;;;;;;;15.53;9.57;;;4.50;73.30;;;;;;5089208;28;20021;-62
2023/03/08 02:22:41;;;;;;;16.83;9.67;;;4.50;73.30;;;;;;5076636;28;20268;-62
2023/03/08 02:25:13;;;;;;;20.37;9.97;;;4.50;73.30;;;;;;5097204;28;20020;-62
2023/03/08 02:27:39;;;;;;;14.70;9.30;;;4.50;74.00;;;;;;5093911;28;20403;-62
2023/03/08 02:30:05;;;;;;;15.33;9.77;;;4.50;73.40;;;;;;5099623;28;20031;-62
2023/03/08 02:32:31;;;;;;;17.43;9.83;;;4.50;73.40;;;;;;5116890;28;20032;-62
2023/03/08 02:34:58;;;;;;;14.50;9.27;;;4.50;73.50;;;;;;5103256;28;20127;-62
2023/03/08 02:37:24;;;;;;;16.97;10.07;;;4.50;73.50;;;;;;5106669;28;20112;-62
2023/03/08 02:39:50;;;;;;;14.90;9.50;;;4.50;73.50;;;;;;5096159;28;20095;-62
2023/03/08 02:42:16;;;;;;;14.43;9.60;;;4.50;73.60;;;;;;5116625;28;20039;-62
2023/03/08 02:44:42;;;;;;;17.20;10.43;;;4.50;73.70;;;;;;5113478;28;20031;-62
2023/03/08 02:47:08;;;;;;;15.83;9.57;;;4.50;73.70;;;;;;5092409;28;20043;-62
2023/03/08 02:49:33;;;;;;;15.17;9.27;;;4.50;73.80;;;;;;5095598;28;20027;-62
2023/03/08 02:51:59;;;;;;;17.00;9.23;;;4.50;73.80;;;;;;5108740;28;20023;-62
2023/03/08 02:54:25;;;;;;;15.10;9.73;;;4.50;73.80;;;;;;5097057;28;20024;-63
2023/03/08 02:56:51;;;;;;;15.77;9.47;;;4.50;73.80;;;;;;5088884;28;20417;-62
2023/03/08 02:59:16;;;;;;;18.37;9.37;;;4.50;73.80;;;;;;5095268;28;20028;-62
2023/03/08 03:01:43;;;;;;;17.90;10.90;;;4.50;73.80;;;;;;5097375;28;20032;-62
2023/03/08 03:04:09;;;;;;;19.67;10.90;;;4.50;73.80;;;;;;5093924;28;20028;-62
2023/03/08 03:06:35;;;;;;;20.10;11.43;;;4.50;73.80;;;;;;5100617;28;20361;-62
2023/03/08 03:09:08;;;;;;;18.00;10.63;;;4.50;73.80;;;;;;5094993;28;20115;-62
2023/03/08 03:11:34;;;;;;;17.20;10.57;;;4.50;73.80;;;;;;5103042;28;20043;-62
2023/03/08 03:14:01;;;;;;;17.07;10.30;;;4.50;73.80;;;;;;5098310;28;20020;-62
2023/03/08 03:16:32;;;;;;;16.77;10.57;;;4.50;73.90;;;;;;5094229;28;20103;-62
2023/03/08 03:18:59;;;;;;;17.43;11.47;;;4.50;73.90;;;;;;5094807;28;20032;-62
2023/03/08 03:21:25;;;;;;;17.53;10.53;;;4.50;73.90;;;;;;5100325;28;20027;-62
2023/03/08 03:23:53;;;;;;;16.77;10.13;;;4.50;74.00;;;;;;5102959;28;20052;-62
2023/03/08 03:26:25;;;;;;;18.40;10.27;;;4.50;74.10;;;;;;5087355;28;20024;-62
2023/03/08 03:28:56;;;;;;;15.80;9.40;;;4.40;74.10;;;;;;5086129;28;20341;-62
2023/03/08 03:31:25;;;;;;;15.80;9.37;;;4.40;74.10;;;;;;5096748;28;20081;-62
2023/03/08 03:33:52;;;;;;;16.63;9.90;;;4.50;74.20;;;;;;5105843;28;20048;-62
2023/03/08 03:36:20;;;;;;;19.37;11.37;;;4.50;74.20;;;;;;5091974;28;20020;-62
2023/03/08 03:38:47;;;;;;;21.70;11.33;;;4.40;74.10;;;;;;5097350;28;20031;-62
2023/03/08 03:41:16;;;;;;;18.00;11.17;;;4.50;74.20;;;;;;5094243;28;20066;-62
2023/03/08 03:43:43;;;;;;;19.73;12.73;;;4.50;74.30;;;;;;5109474;27;20416;-63
2023/03/08 03:46:12;;;;;;;25.33;13.90;;;4.50;74.20;;;;;;5099059;28;20114;-62
2023/03/08 03:48:39;;;;;;;23.90;14.07;;;4.40;74.30;;;;;;5095005;28;20115;-62
2023/03/08 03:51:09;;;;;;;25.67;14.67;;;4.40;74.40;;;;;;5071092;28;20034;-62
2023/03/08 03:53:37;;;;;;;29.83;15.82;;;4.40;74.50;;;;;;5099551;28;20346;-62
2023/03/08 03:56:05;;;;;;;27.53;15.03;;;4.40;74.50;;;;;;5094610;28;20705;-62
2023/03/08 03:58:32;;;;;;;31.90;17.17;;;4.40;74.60;;;;;;5097370;28;20031;-62
2023/03/08 04:00:58;;;;;;;35.00;18.17;;;4.40;74.60;;;;;;5099635;28;20480;-62
2023/03/08 04:03:29;;;;;;;31.15;17.48;;;4.30;74.70;;;;;;5099947;28;20024;-62
2023/03/08 04:06:08;;;;;;;30.27;17.03;;;4.30;74.80;;;;;;5093377;28;20030;-62
2023/03/08 04:08:40;;;;;;;32.57;17.03;;;4.30;74.90;;;;;;5107465;28;20073;-62
2023/03/08 04:11:09;;;;;;;30.30;16.77;;;4.30;74.90;;;;;;5075771;28;20040;-62
2023/03/08 04:13:35;;;;;;;32.80;18.97;;;4.40;75.00;;;;;;5078329;28;20031;-62
2023/03/08 04:16:12;;;;;;;34.07;17.87;;;4.40;74.90;;;;;;5093473;28;20055;-62
2023/03/08 04:18:38;;;;;;;37.03;19.03;;;4.40;75.00;;;;;;5100237;28;20036;-62
2023/03/08 04:21:05;;;;;;;34.93;18.43;;;4.40;75.00;;;;;;5093317;28;20114;-62
2023/03/08 04:23:31;;;;;;;35.53;18.73;;;4.40;75.00;;;;;;5098532;28;20501;-62
2023/03/08 04:25:58;;;;;;;34.37;17.47;;;4.40;75.00;;;;;;5095916;28;20035;-62
2023/03/08 04:28:23;;;;;;;36.33;21.03;;;4.40;75.00;;;;;;5100227;28;20327;-62
2023/03/08 04:30:49;;;;;;;37.87;18.77;;;4.40;75.00;;;;;;5076303;28;20453;-62
2023/03/08 04:33:16;;;;;;;39.67;21.73;;;4.40;75.00;;;;;;5093379;28;20346;-62
2023/03/08 04:35:46;;;;;;;39.67;20.20;;;4.40;75.10;;;;;;5075884;28;20039;-62
2023/03/08 04:38:14;;;;;;;38.67;20.20;;;4.40;75.10;;;;;;5097539;28;20022;-62
2023/03/08 04:43:57;;;;;;;38.13;20.67;;;4.50;75.10;;;;;;5060200;28;20464;-62
2023/03/08 04:46:31;;;;;;;37.07;19.43;;;4.40;75.10;;;;;;5092943;28;20105;-62
2023/03/08 04:48:58;;;;;;;40.00;21.23;;;4.40;75.10;;;;;;5099768;28;20016;-62
2023/03/08 04:51:28;;;;;;;38.93;21.33;;;4.40;75.10;;;;;;5088454;28;20101;-63
2023/03/08 04:53:56;;;;;;;38.50;20.40;;;4.40;75.10;;;;;;5094550;28;20092;-62
2023/03/08 04:56:23;;;;;;;39.07;20.70;;;4.40;75.20;;;;;;5091477;28;20036;-62
2023/03/08 04:58:50;;;;;;;40.40;20.63;;;4.40;75.20;;;;;;5094914;28;20358;-62
2023/03/08 05:01:25;;;;;;;38.53;20.37;;;4.50;75.30;;;;;;5096671;28;20112;-62
2023/03/08 05:03:52;;;;;;;37.33;20.20;;;4.50;75.30;;;;;;5091727;28;20399;-62
2023/03/08 05:06:25;;;;;;;41.93;21.73;;;4.50;75.20;;;;;;5102857;28;20484;-62
2023/03/08 05:08:52;;;;;;;38.80;21.67;;;4.50;75.20;;;;;;5078198;28;20100;-62
2023/03/08 05:11:25;;;;;;;38.03;20.03;;;4.50;75.80;;;;;;5101900;28;20032;-62
2023/03/08 05:13:52;;;;;;;;;;;4.50;75.30;;;;;;5079634;28;20035;-62
2023/03/08 05:16:18;;;;;;;35.47;20.20;;;4.40;75.10;;;;;;5102769;28;19914;-62
2023/03/08 05:18:44;;;;;;;35.50;20.07;;;4.50;75.30;;;;;;5097086;28;20428;-62
2023/03/08 05:21:14;;;;;;;35.93;19.73;;;4.40;75.40;;;;;;5103979;28;20024;-62
2023/03/08 05:23:41;;;;;;;39.13;19.83;;;4.40;75.30;;;;;;5079436;28;20050;-62
2023/03/08 05:26:11;;;;;;;42.23;22.43;;;4.40;75.30;;;;;;5089746;28;20375;-62
2023/03/08 05:28:37;;;;;;;37.87;21.60;;;4.40;75.30;;;;;;5077573;28;20313;-62
2023/03/08 05:31:08;;;;;;;36.73;20.73;;;4.40;75.40;;;;;;5090640;28;20055;-62
2023/03/08 05:33:37;;;;;;;36.90;20.83;;;4.40;75.30;;;;;;5096301;28;20059;-62
2023/03/08 05:36:04;;;;;;;37.43;21.37;;;4.40;75.30;;;;;;5101285;28;20151;-62
2023/03/08 05:38:30;;;;;;;37.73;20.93;;;4.40;75.30;;;;;;5110031;28;20024;-62
2023/03/08 05:41:02;;;;;;;36.20;19.93;;;4.40;75.40;;;;;;5094138;28;20432;-62
2023/03/08 05:43:29;;;;;;;34.28;18.92;;;4.40;75.40;;;;;;5099525;28;20027;-62
2023/03/08 05:46:15;;;;;;;38.07;20.73;;;4.40;75.40;;;;;;5101078;28;20020;-62
2023/03/08 05:48:42;;;;;;;37.27;20.00;;;4.40;75.50;;;;;;5096126;28;20028;-62
2023/03/08 05:51:11;;;;;;;37.67;19.23;;;4.30;75.40;;;;;;5099186;28;20024;-62
2023/03/08 05:53:38;;;;;;;32.57;18.13;;;4.40;75.50;;;;;;5095846;28;20181;-62
2023/03/08 05:56:18;;;;;;;36.13;20.13;;;4.40;75.50;;;;;;5075766;28;20028;-62
2023/03/08 05:58:58;;;;;;;40.40;20.47;;;4.40;75.60;;;;;;5079166;28;20051;-62
2023/03/08 06:01:27;;;;;;;36.30;19.63;;;4.30;75.50;;;;;;5095986;28;20480;-62
2023/03/08 06:03:57;;;;;;;;;;;4.40;75.60;;;;;;5095538;28;20035;-62
2023/03/08 06:06:27;;;;;;;35.20;19.30;;;4.30;75.50;;;;;;5095041;28;19912;-61
2023/03/08 06:08:57;;;;;;;38.73;20.00;;;4.30;75.50;;;;;;5095831;28;20107;-61
2023/03/08 06:11:24;;;;;;;37.43;19.53;;;4.30;75.50;;;;;;5084399;28;20119;-62
2023/03/08 06:13:53;;;;;;;40.93;21.73;;;4.30;75.50;;;;;;5095393;28;20121;-62
2023/03/08 06:16:20;;;;;;;42.07;22.30;;;4.30;75.60;;;;;;5091319;28;20020;-62
2023/03/08 06:18:47;;;;;;;39.17;20.83;;;4.30;75.70;;;;;;5106914;28;20028;-62
2023/03/08 06:21:16;;;;;;;38.07;21.70;;;4.30;75.70;;;;;;5094917;28;20114;-62
2023/03/08 06:23:44;;;;;;;36.83;20.50;;;4.30;75.70;;;;;;5103345;28;20116;-63
2023/03/08 06:26:10;;;;;;;44.03;20.57;;;4.30;75.80;;;;;;5093274;28;20077;-61
2023/03/08 06:28:41;;;;;;;39.07;20.90;;;4.30;75.80;;;;;;5113749;28;20035;-61
2023/03/08 06:31:12;;;;;;;38.37;20.33;;;4.30;75.80;;;;;;5096521;28;20024;-61
2023/03/08 06:33:38;;;;;;;32.43;18.23;;;4.30;75.90;;;;;;5095729;28;20101;-62
2023/03/08 06:36:08;;;;;;;35.63;19.33;;;4.30;75.90;;;;;;5095265;28;20526;-62
2023/03/08 06:38:35;;;;;;;31.37;17.03;;;4.30;75.90;;;;;;5081571;28;20024;-62
2023/03/08 06:41:03;;;;;;;32.83;19.27;;;4.30;75.90;;;;;;5075290;28;20074;-62
2023/03/08 06:43:29;;;;;;;32.10;17.83;;;4.30;75.90;;;;;;5105780;28;20085;-62
2023/03/08 06:45:55;;;;;;;32.47;17.17;;;4.30;75.90;;;;;;5098770;28;20364;-62
2023/03/08 06:48:22;;;;;;;31.20;17.97;;;4.30;75.90;;;;;;5099267;28;20027;-62
2023/03/08 06:50:50;;;;;;;30.13;16.40;;;4.30;76.00;;;;;;5095157;28;20035;-62
2023/03/08 06:53:15;;;;;;;29.83;16.77;;;4.30;76.00;;;;;;5099192;28;20372;-62
2023/03/08 06:56:10;;;;;;;27.70;15.45;;;4.30;75.90;;;;;;5093168;28;20044;-62
2023/03/08 06:58:37;;;;;;;28.07;15.13;;;4.30;75.90;;;;;;5097019;28;20047;-62
2023/03/08 07:01:04;;;;;;;28.43;15.73;;;4.30;75.90;;;;;;5096161;28;20102;-62
2023/03/08 07:03:30;;;;;;;27.10;15.53;;;4.30;75.90;;;;;;5102275;28;20062;-62
2023/03/08 07:06:04;;;;;;;29.33;17.40;;;4.30;75.90;;;;;;5116587;28;20032;-62
2023/03/08 07:08:31;;;;;;;27.10;16.00;;;4.30;75.90;;;;;;5107574;28;20036;-62
2023/03/08 07:10:57;;;;;;;27.53;15.23;;;4.30;75.90;;;;;;5095953;28;20407;-62
2023/03/08 07:13:23;;;;;;;28.90;16.07;;;4.30;75.90;;;;;;5102240;28;20448;-62
2023/03/08 07:15:52;;;;;;;28.13;16.37;;;4.30;76.00;;;;;;5115436;28;20023;-62
2023/03/08 07:18:18;;;;;;;26.60;15.83;;;4.30;76.00;;;;;;5106505;28;20028;-62
2023/03/08 07:20:44;;;;;;;28.07;15.57;;;4.30;75.90;;;;;;5109974;28;20036;-61
2023/03/08 07:23:10;;;;;;;28.87;15.77;;;4.30;76.00;;;;;;5096460;28;20051;-61
2023/03/08 07:25:39;;;;;;;32.43;17.97;;;4.30;76.00;;;;;;5112027;28;20035;-62
2023/03/08 07:28:05;;;;;;;30.03;17.00;;;4.40;76.00;;;;;;5093096;28;20028;-62
2023/03/08 07:30:31;;;;;;;30.73;16.40;;;4.40;75.90;;;;;;5098569;28;20102;-61
2023/03/08 07:32:56;;;;;;;37.97;19.23;;;4.40;75.90;;;;;;5092090;28;20498;-62
2023/03/08 07:35:22;;;;;;;32.70;18.33;;;4.50;76.00;;;;;;5113440;28;20150;-62
2023/03/08 07:37:48;;;;;;;33.07;17.13;;;4.50;76.00;;;;;;5096599;28;20023;-62
2023/03/08 07:40:15;;;;;;;35.63;18.47;;;4.50;75.90;;;;;;5092019;28;20035;-62
2023/03/08 07:42:41;;;;;;;33.73;17.00;;;4.50;75.90;;;;;;5097436;28;20027;-63
2023/03/08 07:45:24;;;;;;;31.27;16.93;;;4.50;76.00;;;;;;5086643;28;20031;-63
2023/03/08 07:47:51;;;;;;;36.07;18.50;;;4.50;76.00;;;;;;5094256;28;20356;-62
2023/03/08 07:50:17;;;;;;;38.47;18.83;;;4.60;76.00;;;;;;5091332;28;20122;-62
2023/03/08 07:52:43;;;;;;;34.07;18.33;;;4.60;76.00;;;;;;5079623;28;20032;-62
2023/03/08 07:55:10;;;;;;;34.70;19.40;;;4.60;76.00;;;;;;5102256;28;20024;-62
2023/03/08 07:57:36;;;;;;;35.90;18.53;;;4.60;76.00;;;;;;5078477;28;20044;-62
2023/03/08 08:00:06;;;;;;;31.57;18.13;;;4.60;76.10;;;;;;5094852;28;20028;-62
2023/03/08 08:02:38;;;;;;;34.03;17.40;;;4.60;76.00;;;;;;5093673;28;20448;-62
2023/03/08 08:05:04;;;;;;;36.53;20.37;;;4.60;76.00;;;;;;5095073;28;20035;-62
2023/03/08 08:07:30;;;;;;;35.37;19.23;;;4.60;76.00;;;;;;5094828;28;20081;-62
2023/03/08 08:09:56;;;;;;;132.07;30.73;;;4.60;76.10;;;;;;5094884;28;20029;-62
2023/03/08 08:12:22;;;;;;;55.87;21.23;;;4.70;76.10;;;;;;5093513;28;20105;-62
2023/03/08 08:14:51;;;;;;;44.03;21.60;;;4.70;76.10;;;;;;5095104;28;20395;-62
2023/03/08 08:17:18;;;;;;;40.40;21.27;;;4.70;76.10;;;;;;5095105;28;20483;-62
2023/03/08 08:19:45;;;;;;;37.77;21.13;;;4.70;76.10;;;;;;5094914;28;20024;-62
2023/03/08 08:22:10;;;;;;;42.70;22.73;;;4.70;76.10;;;;;;5093530;28;20043;-62
2023/03/08 08:24:36;;;;;;;41.40;22.03;;;4.70;76.10;;;;;;5094579;28;20036;-62
2023/03/08 08:27:02;;;;;;;37.43;20.83;;;4.80;76.10;;;;;;5091783;28;20020;-62
2023/03/08 08:29:28;;;;;;;42.07;21.57;;;4.80;76.10;;;;;;5099375;28;20360;-61
2023/03/08 08:31:55;;;;;;;34.87;20.57;;;4.80;76.10;;;;;;5092713;28;20032;-62
2023/03/08 08:34:20;;;;;;;40.03;21.53;;;4.90;76.10;;;;;;5092733;28;20035;-62
2023/03/08 08:36:46;;;;;;;40.03;19.97;;;4.90;76.00;;;;;;5094708;28;20012;-62
2023/03/08 08:39:12;;;;;;;36.63;19.27;;;5.00;76.00;;;;;;5092504;28;20503;-61
2023/03/08 08:41:38;;;;;;;35.17;19.67;;;5.00;75.90;;;;;;5094951;28;20031;-61
2023/03/08 08:44:03;;;;;;;38.37;19.30;;;5.10;76.60;;;;;;5092081;28;20041;-62
2023/03/08 08:46:32;;;;;;;34.57;17.90;;;5.10;75.80;;;;;;5092354;28;20036;-62
2023/03/08 08:48:59;;;;;;;32.87;18.13;;;5.10;75.80;;;;;;5093361;28;20306;-62
2023/03/08 08:51:25;;;;;;;32.50;18.40;;;5.20;75.70;;;;;;5090564;28;20077;-61
2023/03/08 08:53:51;;;;;;;31.80;17.43;;;5.20;75.70;;;;;;5092669;28;20107;-62
2023/03/08 08:56:20;;;;;;;28.97;16.57;;;5.20;75.60;;;;;;5092932;28;20052;-62
2023/03/08 08:58:47;;;;;;;29.70;15.53;;;5.20;75.50;;;;;;5075139;28;20371;-62
2023/03/08 09:01:18;;;;;;;27.43;15.23;;;5.30;75.50;;;;;;5112972;28;20447;-61
2023/03/08 09:03:47;;;;;;;25.05;15.27;;;5.30;75.40;;;;;;5105423;28;20036;-61
2023/03/08 09:06:14;;;;;;;21.70;12.87;;;5.30;75.30;;;;;;5092955;28;20024;-61
2023/03/08 09:08:40;;;;;;;24.33;13.47;;;5.30;75.20;;;;;;5093539;28;20477;-62
2023/03/08 09:11:08;;;;;;;23.17;13.30;;;5.30;75.00;;;;;;5101043;28;20317;-62
2023/03/08 09:13:37;;;;;;;25.07;13.50;;;5.30;75.00;;;;;;5091179;28;20130;-61
2023/03/08 09:16:03;;;;;;;26.00;14.27;;;5.30;74.90;;;;;;5092610;28;20036;-61
2023/03/08 09:18:29;;;;;;;24.03;13.23;;;5.40;74.90;;;;;;5092430;28;20036;-61
2023/03/08 09:20:54;;;;;;;27.80;15.17;;;5.40;74.80;;;;;;5095044;28;20038;-61
2023/03/08 09:23:20;;;;;;;26.03;15.17;;;5.40;74.70;;;;;;5097514;28;20062;-61
2023/03/08 09:25:55;;;;;;;24.60;14.07;;;5.40;74.60;;;;;;5087829;28;20038;-61
2023/03/08 09:28:20;;;;;;;25.77;14.23;;;5.40;74.60;;;;;;5074648;28;20043;-61
2023/03/08 09:30:46;;;;;;;24.07;12.67;;;5.40;74.50;;;;;;5093672;28;20115;-61
2023/03/08 09:33:12;;;;;;;24.03;12.53;;;5.30;74.40;;;;;;5091337;28;20107;-62
2023/03/08 09:35:38;;;;;;;22.03;11.97;;;5.30;74.50;;;;;;5091307;28;20081;-61
2023/03/08 09:38:03;;;;;;;23.93;12.50;;;5.40;74.50;;;;;;5102428;28;20084;-62
2023/03/08 09:40:38;;;;;;;20.43;10.90;;;5.40;74.40;;;;;;5102424;28;20024;-61
2023/03/08 09:43:05;;;;;;;17.47;8.80;;;5.40;74.10;;;;;;5091408;28;20187;-62
2023/03/08 09:45:32;;;;;;;17.20;9.23;;;5.40;74.00;;;;;;5095516;28;20035;-62
2023/03/08 09:48:12;;;;;;;15.87;8.47;;;5.30;73.90;;;;;;5102413;28;20131;-62
2023/03/08 09:50:48;;;;;;;18.73;10.87;;;5.40;73.90;;;;;;5105267;28;20123;-62
2023/03/08 09:53:19;;;;;;;18.63;10.37;;;5.40;73.80;;;;;;5104092;28;20031;-62
2023/03/08 09:56:28;;;;;;;16.87;9.13;;;5.40;73.70;;;;;;5089702;28;20027;-61
2023/03/08 09:59:01;;;;;;;15.83;9.50;;;5.50;73.40;;;;;;5091475;28;20052;-62
2023/03/08 10:01:38;;;;;;;17.93;9.90;;;5.50;73.20;;;;;;5096517;28;20114;-61
2023/03/08 10:04:26;;;;;;;16.40;9.53;;;5.60;73.10;;;;;;5097260;28;20123;-62
2023/03/08 10:07:15;;;;;;;14.90;8.70;;;5.60;73.00;;;;;;5095220;28;20333;-62
2023/03/08 10:10:08;;;;;;;15.33;8.23;;;5.60;72.90;;;;;;5061900;28;20048;-62
2023/03/08 10:12:51;;;;;;;14.93;7.97;;;5.60;72.80;;;;;;5074849;28;20052;-62
2023/03/08 10:15:21;;;;;;;16.07;9.43;;;5.70;72.80;;;;;;5077117;28;20040;-61
2023/03/08 10:17:56;;;;;;;14.97;8.47;;;5.70;72.70;;;;;;5084581;28;20037;-61
2023/03/08 10:20:33;;;;;;;15.50;8.17;;;5.80;72.50;;;;;;5092967;28;20126;-62
2023/03/08 10:23:14;;;;;;;16.17;8.97;;;5.80;72.30;;;;;;5077159;28;20024;-62
2023/03/08 10:25:39;;;;;;;14.35;7.68;;;5.90;72.20;;;;;;5088013;28;20070;-61
2023/03/08 10:28:15;;;;;;;14.70;7.90;;;6.00;72.10;;;;;;5094450;28;20421;-62
2023/03/08 10:30:45;;;;;;;14.80;8.07;;;6.10;71.80;;;;;;5095655;28;20063;-62
2023/03/08 10:33:13;;;;;;;16.27;8.40;;;6.10;71.60;;;;;;5104206;28;20146;-62
2023/03/08 10:36:00;;;;;;;15.43;8.87;;;6.10;71.60;;;;;;5100037;28;20070;-62
2023/03/08 10:38:29;;;;;;;16.43;9.17;;;6.20;71.50;;;;;;5092383;28;20019;-64
2023/03/08 10:41:17;;;;;;;19.27;9.43;;;6.20;71.50;;;;;;5100930;28;20060;-63
2023/03/08 10:43:49;;;;;;;16.07;9.30;;;6.30;71.40;;;;;;5101443;28;20440;-63
2023/03/08 10:46:18;;;;;;;17.57;9.53;;;6.40;71.30;;;;;;5110468;28;20027;-64
2023/03/08 10:48:45;;;;;;;16.53;8.80;;;6.50;71.10;;;;;;5098494;28;20115;-63
2023/03/08 10:51:26;;;;;;;14.80;8.90;;;6.50;70.90;;;;;;5076518;28;20043;-63
2023/03/08 10:53:57;;;;;;;15.60;8.80;;;6.50;70.80;;;;;;5087385;28;20047;-64
2023/03/08 10:56:43;;;;;;;13.98;7.75;;;6.50;70.70;;;;;;5099141;28;20059;-63
2023/03/08 10:59:34;;;;;;;12.70;7.13;;;6.60;70.70;;;;;;5104299;28;20026;-63
2023/03/08 11:02:21;;;;;;;13.23;7.47;;;6.60;70.40;;;;;;5116764;28;20039;-63
2023/03/08 11:04:53;;;;;;;14.90;7.97;;;6.60;70.30;;;;;;5089266;28;20055;-63
2023/03/08 11:07:28;;;;;;;14.23;7.53;;;6.70;70.20;;;;;;5090011;28;20260;-63
2023/03/08 11:10:12;;;;;;;16.10;7.63;;;6.80;70.00;;;;;;5092590;28;20028;-64
2023/03/08 11:12:38;;;;;;;13.30;7.47;;;6.80;69.70;;;;;;5094166;28;20054;-64
2023/03/08 11:15:15;;;;;;;13.37;7.03;;;6.90;69.60;;;;;;5077648;28;20115;-63
2023/03/08 11:18:02;;;;;;;12.00;6.50;;;6.90;69.40;;;;;;5091011;28;20046;-63
2023/03/08 11:20:35;;;;;;;14.10;7.53;;;6.90;69.30;;;;;;5095420;28;20115;-63
2023/03/08 11:23:15;;;;;;;12.80;7.23;;;6.80;69.40;;;;;;5087493;28;20056;-65
2023/03/08 11:25:46;;;;;;;13.37;6.80;;;6.80;69.50;;;;;;5090516;28;20031;-63
2023/03/08 11:28:37;;;;;;;12.70;7.13;;;6.70;69.40;;;;;;5083367;28;20122;-63
2023/03/08 11:31:13;;;;;;;16.60;7.80;;;6.60;69.30;;;;;;5091798;28;20039;-63
2023/03/08 11:34:16;;;;;;;16.33;8.33;;;6.60;69.40;;;;;;5093477;28;20035;-63
2023/03/08 11:37:13;;;;;;;17.63;8.60;;;6.60;69.40;;;;;;5094667;28;20028;-63
2023/03/08 11:40:00;;;;;;;13.60;7.83;;;6.60;69.40;;;;;;5097856;28;20407;-63
2023/03/08 11:42:28;;;;;;;17.13;8.70;;;6.60;69.20;;;;;;5094116;28;20036;-63
2023/03/08 11:45:03;;;;;;;14.30;8.13;;;6.60;69.00;;;;;;5077275;28;20108;-64
2023/03/08 11:48:00;;;;;;;15.33;7.17;;;6.60;68.80;;;;;;5092089;28;20051;-63
2023/03/08 11:50:38;;;;;;;16.63;8.70;;;6.60;68.60;;;;;;5073603;28;20486;-63
2023/03/08 11:53:15;;;;;;;15.50;7.87;;;6.60;68.50;;;;;;5092063;28;20353;-64
2023/03/08 11:56:09;;;;;;;18.00;9.30;;;6.60;68.50;;;;;;5101594;28;20028;-63
2023/03/08 11:58:58;;;;;;;18.53;10.57;;;6.70;68.50;;;;;;5092696;28;20029;-63
2023/03/08 12:02:16;;;;;;;16.50;9.00;;;6.60;68.50;;;;;;5081803;28;20024;-62
2023/03/08 12:04:51;;;;;;;17.20;9.17;;;6.60;68.50;;;;;;5078147;28;20456;-63
2023/03/08 12:07:31;;;;;;;16.20;8.97;;;6.60;68.60;;;;;;5093066;28;20043;-63
2023/03/08 12:10:18;;;;;;;17.60;9.80;;;6.60;68.50;;;;;;5101860;28;20031;-64
2023/03/08 12:13:03;;;;;;;18.67;9.90;;;6.60;68.50;;;;;;5088579;28;20050;-64
2023/03/08 12:15:39;;;;;;;16.60;9.30;;;6.60;68.60;;;;;;5087431;28;20426;-64
2023/03/08 12:18:07;;;;;;;18.40;9.90;;;6.60;68.50;;;;;;5093822;28;20027;-63
2023/03/08 12:20:38;;;;;;;19.53;10.67;;;6.60;68.50;;;;;;5098109;28;20115;-63
2023/03/08 12:23:35;;;;;;;15.38;9.15;;;6.60;68.50;;;;;;5093408;28;20020;-63
2023/03/08 12:26:07;;;;;;;17.47;9.63;;;6.60;68.50;;;;;;5081094;28;20043;-63
2023/03/08 12:28:45;;;;;;;15.43;9.40;;;6.60;68.40;;;;;;5097930;28;20218;-63
2023/03/08 12:31:27;;;;;;;16.30;8.77;;;6.60;68.20;;;;;;5105105;28;20448;-63
2023/03/08 12:33:54;;;;;;;;;;;6.60;68.10;;;;;;5103178;28;20024;-62
2023/03/08 12:36:23;;;;;;;14.37;7.43;;;6.60;68.30;;;;;;5100317;28;19957;-63
2023/03/08 12:38:55;;;;;;;13.83;7.63;;;6.50;68.20;;;;;;5095350;28;20119;-62
2023/03/08 12:41:29;;;;;;;14.33;7.47;;;6.50;68.10;;;;;;5094245;28;20101;-64
2023/03/08 12:44:20;;;;;;;13.23;7.20;;;6.60;68.00;;;;;;5070516;28;20039;-63
2023/03/08 12:46:50;;;;;;;13.53;7.37;;;6.60;68.00;;;;;;5094248;28;20352;-64
2023/03/08 12:49:20;;;;;;;12.80;7.07;;;6.60;67.80;;;;;;5101513;28;20024;-63
2023/03/08 12:51:59;;;;;;;12.97;6.50;;;6.70;67.60;;;;;;5088604;28;20089;-63
2023/03/08 12:54:29;;;;;;;13.70;6.73;;;6.60;67.40;;;;;;5098380;28;20091;-63
2023/03/08 12:56:55;;;;;;;12.17;6.83;;;6.60;67.30;;;;;;5101090;28;20082;-64
2023/03/08 12:59:20;;;;;;;12.60;7.13;;;6.60;67.40;;;;;;5086150;28;20433;-63
2023/03/08 13:02:21;;;;;;;12.53;6.77;;;6.60;67.40;;;;;;5093025;28;20492;-63
2023/03/08 13:04:47;;;;;;;11.37;5.90;;;6.60;67.30;;;;;;5090900;28;20537;-63